createdAt,value
2022-08-02T00:00:35.223Z,7.70
2022-08-02T00:03:07.936Z,7.50
2022-08-02T00:05:35.069Z,8.07
2022-08-02T00:08:02.015Z,7.97
2022-08-02T00:10:29.112Z,9.40
2022-08-02T00:12:57.965Z,8.45
2022-08-02T00:15:25.140Z,11.10
2022-08-02T00:17:52.058Z,9.18
2022-08-02T00:20:19.490Z,9.63
2022-08-02T00:22:46.419Z,6.95
2022-08-02T00:25:13.338Z,9.27
2022-08-02T00:27:40.543Z,10.40
2022-08-02T00:30:07.977Z,12.10
2022-08-02T00:32:34.964Z,11.02
2022-08-02T00:35:02.062Z,9.65
2022-08-02T00:37:28.990Z,8.18
2022-08-02T00:39:57.422Z,8.55
2022-08-02T00:42:24.618Z,10.15
2022-08-02T00:44:51.608Z,8.23
2022-08-02T00:47:19.443Z,10.27
2022-08-02T00:49:47.462Z,7.63
2022-08-02T00:52:14.814Z,10.32
2022-08-02T00:54:42.003Z,9.50
2022-08-02T00:57:09.248Z,9.75
2022-08-02T00:59:36.259Z,10.85
2022-08-02T01:02:03.194Z,10.70
2022-08-02T01:04:32.237Z,8.98
2022-08-02T01:07:01.224Z,10.23
2022-08-02T01:09:28.459Z,8.50
2022-08-02T01:11:56.229Z,8.85
2022-08-02T01:14:24.911Z,12.70
2022-08-02T01:17:28.972Z,10.43
2022-08-02T01:20:04.891Z,8.90
2022-08-02T01:23:02.142Z,10.43
2022-08-02T01:25:46.778Z,10.45
2022-08-02T01:28:19.636Z,9.70
2022-08-02T01:30:50.467Z,9.32
2022-08-02T01:33:21.055Z,10.67
2022-08-02T01:35:54.234Z,12.27
2022-08-02T01:38:27.651Z,10.15
2022-08-02T01:40:56.549Z,10.93
2022-08-02T01:43:25.704Z,11.13
2022-08-02T01:45:54.062Z,12.25
2022-08-02T01:48:23.347Z,13.88
2022-08-02T01:50:51.968Z,11.35
2022-08-02T01:53:22.205Z,14.32
2022-08-02T01:55:58.358Z,11.50
2022-08-02T01:58:30.096Z,13.27
2022-08-02T02:00:59.481Z,10.75
2022-08-02T02:03:29.075Z,13.35
2022-08-02T02:05:59.100Z,13.63
2022-08-02T02:08:32.907Z,10.98
2022-08-02T02:12:11.815Z,12.02
2022-08-02T02:13:50.302Z,11.18
2022-08-02T02:16:19.593Z,15.65
2022-08-02T02:18:48.939Z,13.70
2022-08-02T02:21:16.708Z,11.85
2022-08-02T02:23:43.715Z,10.52
2022-08-02T02:26:13.725Z,11.63
2022-08-02T02:28:43.383Z,13.60
2022-08-02T02:31:14.073Z,11.27
2022-08-02T02:33:48.754Z,11.65
2022-08-02T02:36:17.812Z,12.27
2022-08-02T02:38:46.353Z,10.70
2022-08-02T02:41:14.600Z,13.43
2022-08-02T02:43:43.729Z,11.30
2022-08-02T02:46:12.705Z,11.95
2022-08-02T02:48:40.655Z,12.20
2022-08-02T02:51:14.085Z,10.77
2022-08-02T02:54:32.531Z,14.48
2022-08-02T02:56:30.799Z,13.65
2022-08-02T02:59:00.770Z,13.35
2022-08-02T03:01:55.418Z,14.27
2022-08-02T03:04:16.123Z,13.68
2022-08-02T03:06:43.241Z,12.93
2022-08-02T03:09:11.608Z,17.10
2022-08-02T03:11:40.716Z,13.73
2022-08-02T03:14:11.119Z,18.10
2022-08-02T03:16:50.475Z,15.23
2022-08-02T03:19:18.779Z,14.45
2022-08-02T03:21:47.174Z,15.50
2022-08-02T03:24:14.689Z,14.98
2022-08-02T03:26:42.045Z,11.00
2022-08-02T03:29:09.963Z,10.18
2022-08-02T03:31:41.835Z,11.52
2022-08-02T03:34:10.053Z,13.07
2022-08-02T03:36:39.151Z,12.93
2022-08-02T03:39:07.535Z,10.40
2022-08-02T03:41:36.955Z,13.00
2022-08-02T03:44:04.827Z,14.38
2022-08-02T03:46:32.458Z,14.23
2022-08-02T03:49:00.544Z,14.77
2022-08-02T03:51:27.777Z,16.40
2022-08-02T03:53:55.865Z,15.32
2022-08-02T03:56:23.613Z,12.48
2022-08-02T03:58:50.719Z,12.73
2022-08-02T04:01:17.667Z,16.08
2022-08-02T04:03:44.846Z,11.73
2022-08-02T04:06:11.726Z,11.70
2022-08-02T04:08:39.077Z,11.13
2022-08-02T04:11:25.662Z,10.60
2022-08-02T04:13:54.726Z,9.88
2022-08-02T04:16:32.238Z,15.85
2022-08-02T04:19:02.737Z,12.88
2022-08-02T04:21:49.955Z,10.13
2022-08-02T04:24:24.599Z,15.75
2022-08-02T04:27:03.427Z,15.57
2022-08-02T04:29:35.236Z,11.82
2022-08-02T04:32:03.684Z,9.65
2022-08-02T04:34:31.367Z,9.85
2022-08-02T04:36:59.831Z,9.43
2022-08-02T04:39:28.053Z,8.43
2022-08-02T04:41:57.720Z,8.15
2022-08-02T04:44:25.270Z,9.20
2022-08-02T04:46:52.866Z,11.75
2022-08-02T04:49:19.953Z,8.15
2022-08-02T04:51:47.063Z,8.15
2022-08-02T04:54:14.217Z,8.05
2022-08-02T04:56:41.390Z,6.72
2022-08-02T04:59:08.817Z,9.48
2022-08-02T05:01:36.057Z,8.90
2022-08-02T05:04:03.156Z,7.35
2022-08-02T05:06:30.044Z,6.30
2022-08-02T05:08:57.193Z,7.57
2022-08-02T05:11:36.037Z,8.25
2022-08-02T05:14:05.444Z,4.85
2022-08-02T05:16:32.660Z,6.10
2022-08-02T05:19:00.947Z,5.22
2022-08-02T05:21:28.598Z,7.57
2022-08-02T05:23:55.486Z,8.50
2022-08-02T05:26:23.625Z,8.05
2022-08-02T05:28:50.784Z,3.58
2022-08-02T05:31:17.679Z,8.10
2022-08-02T05:33:44.571Z,6.60
2022-08-02T05:36:11.731Z,6.47
2022-08-02T05:38:38.657Z,7.35
2022-08-02T05:41:06.548Z,5.38
2022-08-02T05:43:33.858Z,6.35
2022-08-02T05:46:00.866Z,4.13
2022-08-02T05:48:31.863Z,7.97
2022-08-02T05:51:11.013Z,4.38
2022-08-02T05:53:46.415Z,3.97
2022-08-02T05:56:29.859Z,4.35
2022-08-02T05:59:18.516Z,7.78
2022-08-02T06:01:48.637Z,4.47
2022-08-02T06:04:26.418Z,7.53
2022-08-02T06:06:59.147Z,4.85
2022-08-02T06:09:27.229Z,6.10
2022-08-02T06:12:10.912Z,6.88
2022-08-02T06:14:38.055Z,7.03
2022-08-02T06:17:05.973Z,6.22
2022-08-02T06:19:46.779Z,6.60
2022-08-02T06:22:35.711Z,4.75
2022-08-02T06:25:05.511Z,4.30
2022-08-02T06:27:33.986Z,8.40
2022-08-02T06:30:02.418Z,8.50
2022-08-02T06:32:29.369Z,3.85
2022-08-02T06:34:56.702Z,6.75
2022-08-02T06:37:47.315Z,5.78
2022-08-02T06:40:43.878Z,4.57
2022-08-02T06:43:30.791Z,8.80
2022-08-02T06:46:34.444Z,3.70
2022-08-02T06:48:45.458Z,7.25
2022-08-02T06:51:13.217Z,6.63
2022-08-02T06:53:40.389Z,3.88
2022-08-02T06:56:07.341Z,2.95
2022-08-02T06:58:36.359Z,3.05
2022-08-02T07:01:07.200Z,5.40
2022-08-02T07:03:34.763Z,4.80
2022-08-02T07:06:01.998Z,10.68
2022-08-02T07:08:36.263Z,2.88
2022-08-02T07:11:04.878Z,2.75
2022-08-02T07:13:34.741Z,5.68
2022-08-02T07:16:05.534Z,7.47
2022-08-02T07:18:32.456Z,4.70
2022-08-02T07:20:59.326Z,5.20
2022-08-02T07:23:26.519Z,5.20
2022-08-02T07:26:02.680Z,3.80
2022-08-02T07:28:31.435Z,5.68
2022-08-02T07:30:58.731Z,5.30
2022-08-02T07:33:38.059Z,4.32
2022-08-02T07:36:09.623Z,4.88
2022-08-02T07:38:40.823Z,4.32
2022-08-02T07:41:08.191Z,12.55
2022-08-02T07:43:35.594Z,5.78
2022-08-02T07:46:02.554Z,4.65
2022-08-02T07:48:29.727Z,3.03
2022-08-02T07:50:57.701Z,6.55
2022-08-02T07:53:50.314Z,3.38
2022-08-02T07:56:12.561Z,2.70
2022-08-02T07:58:41.686Z,4.32
2022-08-02T08:01:09.940Z,3.13
2022-08-02T08:03:37.071Z,5.05
2022-08-02T08:06:04.108Z,3.60
2022-08-02T08:08:31.102Z,5.20
2022-08-02T08:10:58.208Z,7.05
2022-08-02T08:13:25.144Z,4.35
2022-08-02T08:15:52.718Z,3.38
2022-08-02T08:18:21.822Z,4.93
2022-08-02T08:20:48.807Z,4.38
2022-08-02T08:23:15.745Z,6.45
2022-08-02T08:25:42.847Z,2.78
2022-08-02T08:28:10.248Z,5.68
2022-08-02T08:30:37.262Z,6.47
2022-08-02T08:33:04.650Z,3.15
2022-08-02T08:35:31.703Z,4.50
2022-08-02T08:37:58.580Z,8.25
2022-08-02T08:40:26.185Z,5.22
2022-08-02T08:42:53.403Z,5.35
2022-08-02T08:45:20.325Z,4.18
2022-08-02T08:47:52.534Z,4.78
2022-08-02T08:50:25.425Z,4.43
2022-08-02T08:53:01.803Z,9.73
2022-08-02T08:55:30.469Z,7.07
2022-08-02T08:57:59.538Z,5.28
2022-08-02T09:00:27.674Z,3.42
2022-08-02T09:02:55.078Z,5.05
2022-08-02T09:05:22.347Z,5.57
2022-08-02T09:07:51.360Z,3.92
2022-08-02T09:10:47.065Z,2.92
2022-08-02T09:13:43.568Z,3.67
2022-08-02T09:16:10.929Z,4.70
2022-08-02T09:18:45.720Z,4.90
2022-08-02T09:21:15.013Z,4.93
2022-08-02T09:23:48.576Z,5.10
2022-08-02T09:26:18.675Z,4.88
2022-08-02T09:28:50.087Z,4.20
2022-08-02T09:31:23.846Z,4.07
2022-08-02T09:33:56.317Z,4.88
2022-08-02T09:36:24.470Z,3.40
2022-08-02T09:39:01.582Z,3.97
2022-08-02T09:41:35.281Z,5.38
2022-08-02T09:44:06.723Z,2.85
2022-08-02T09:46:40.354Z,5.07
2022-08-02T09:49:13.178Z,2.80
2022-08-02T09:51:50.282Z,3.97
2022-08-02T09:54:20.188Z,4.82
2022-08-02T09:56:52.508Z,3.35
2022-08-02T10:01:51.496Z,3.35
2022-08-02T10:04:52.147Z,3.13
2022-08-02T10:07:22.448Z,3.22
2022-08-02T10:09:50.888Z,10.35
2022-08-02T10:12:19.077Z,4.80
2022-08-02T10:14:46.190Z,3.35
2022-08-02T10:17:15.422Z,3.42
2022-08-02T10:20:00.508Z,3.70
2022-08-02T10:22:30.036Z,4.07
2022-08-02T10:24:57.111Z,4.43
2022-08-02T10:27:25.801Z,3.42
2022-08-02T10:29:57.776Z,3.63
2022-08-02T10:32:31.608Z,1.92
2022-08-02T10:35:18.612Z,4.20
2022-08-02T10:37:54.171Z,4.32
2022-08-02T10:40:26.222Z,3.25
2022-08-02T10:42:55.174Z,5.25
2022-08-02T10:45:23.162Z,7.65
2022-08-02T10:48:03.841Z,2.70
2022-08-02T10:50:46.319Z,4.00
2022-08-02T10:53:39.539Z,3.25
2022-08-02T10:56:09.393Z,3.90
2022-08-02T10:58:36.433Z,3.42
2022-08-02T11:01:05.624Z,9.55
2022-08-02T11:03:33.597Z,10.80
2022-08-02T11:06:25.098Z,5.45
2022-08-02T11:09:32.511Z,2.47
2022-08-02T11:12:09.325Z,2.60
2022-08-02T11:14:39.827Z,4.78
2022-08-02T11:17:14.014Z,10.13
2022-08-02T11:20:12.246Z,3.65
2022-08-02T11:22:40.527Z,3.00
2022-08-02T11:25:22.928Z,1.63
2022-08-02T11:27:58.431Z,2.80
2022-08-02T11:30:27.324Z,2.53
2022-08-02T11:32:59.096Z,5.07
2022-08-02T11:35:38.680Z,2.92
2022-08-02T11:38:20.270Z,1.95
2022-08-02T11:40:48.585Z,3.87
2022-08-02T11:43:17.784Z,3.22
2022-08-02T11:45:44.976Z,2.20
2022-08-02T11:48:12.197Z,2.50
2022-08-02T11:50:39.393Z,6.07
2022-08-02T11:53:16.476Z,2.25
2022-08-02T11:55:43.682Z,2.10
2022-08-02T11:58:11.824Z,4.05
2022-08-02T12:00:39.094Z,2.78
2022-08-02T12:03:07.629Z,2.40
2022-08-02T12:06:03.088Z,2.67
2022-08-02T12:08:25.714Z,3.22
2022-08-02T12:10:52.804Z,2.35
2022-08-02T12:13:19.812Z,3.70
2022-08-02T12:15:47.467Z,6.15
2022-08-02T12:18:35.573Z,3.88
2022-08-02T12:21:20.432Z,4.97
2022-08-02T12:23:58.771Z,4.05
2022-08-02T12:26:28.513Z,1.95
2022-08-02T12:28:59.908Z,2.53
2022-08-02T12:31:56.847Z,2.92
2022-08-02T12:34:31.885Z,5.15
2022-08-02T12:37:10.610Z,2.53
2022-08-02T12:39:43.484Z,2.30
2022-08-02T12:42:12.657Z,2.65
2022-08-02T12:45:00.829Z,2.50
2022-08-02T12:47:35.843Z,3.92
2022-08-02T12:50:12.213Z,2.70
2022-08-02T12:52:39.358Z,2.00
2022-08-02T12:55:25.823Z,2.25
2022-08-02T12:58:12.854Z,2.72
2022-08-02T13:00:40.498Z,3.78
2022-08-02T13:03:11.657Z,5.00
2022-08-02T13:05:56.959Z,3.88
2022-08-02T13:08:24.965Z,3.88
2022-08-02T13:10:51.924Z,2.55
2022-08-02T13:13:19.031Z,2.15
2022-08-02T13:15:50.256Z,1.60
2022-08-02T13:18:18.483Z,3.13
2022-08-02T13:20:45.979Z,3.25
2022-08-02T13:23:21.502Z,2.95
2022-08-02T13:25:52.818Z,2.05
2022-08-02T13:28:20.332Z,1.08
2022-08-02T13:30:47.744Z,1.65
2022-08-02T13:33:15.964Z,2.00
2022-08-02T13:35:44.324Z,1.90
2022-08-02T13:38:11.367Z,2.88
2022-08-02T13:41:04.356Z,2.45
2022-08-02T13:43:52.855Z,1.40
2022-08-02T13:46:29.061Z,3.00
2022-08-02T13:48:56.941Z,2.25
2022-08-02T13:51:24.183Z,1.58
2022-08-02T13:53:51.136Z,2.20
2022-08-02T13:56:18.076Z,5.13
2022-08-02T13:58:45.265Z,3.17
2022-08-02T14:01:12.215Z,4.53
2022-08-02T14:04:07.348Z,3.70
2022-08-02T14:06:26.575Z,1.35
2022-08-02T14:08:53.631Z,3.47
2022-08-02T14:11:20.603Z,1.42
2022-08-02T14:13:47.684Z,1.75
2022-08-02T14:16:14.626Z,2.72
2022-08-02T14:18:41.545Z,3.72
2022-08-02T14:21:08.644Z,2.13
2022-08-02T14:23:48.993Z,3.92
2022-08-02T14:26:27.125Z,1.35
2022-08-02T14:28:55.518Z,3.00
2022-08-02T14:31:22.776Z,1.90
2022-08-02T14:33:50.098Z,2.50
2022-08-02T14:36:27.111Z,1.42
2022-08-02T14:38:56.472Z,1.52
2022-08-02T14:41:23.725Z,1.30
2022-08-02T14:44:05.958Z,1.50
2022-08-02T14:46:35.827Z,1.65
2022-08-02T14:49:04.070Z,2.28
2022-08-02T14:51:32.293Z,1.17
2022-08-02T14:54:02.806Z,2.70
2022-08-02T14:56:30.737Z,2.70
2022-08-02T14:58:58.023Z,1.92
2022-08-02T15:01:26.082Z,1.55
2022-08-02T15:03:53.616Z,1.35
2022-08-02T15:06:20.670Z,3.00
2022-08-02T15:08:47.741Z,4.53
2022-08-02T15:11:15.060Z,2.15
2022-08-02T15:13:42.729Z,2.97
2022-08-02T15:16:10.057Z,2.78
2022-08-02T15:18:37.122Z,0.88
2022-08-02T15:21:09.737Z,3.60
2022-08-02T15:23:51.235Z,5.25
2022-08-02T15:26:20.768Z,2.03
2022-08-02T15:28:48.487Z,2.80
2022-08-02T15:31:33.357Z,4.45
2022-08-02T15:34:02.514Z,1.95
2022-08-02T15:36:29.862Z,1.92
2022-08-02T15:38:57.670Z,3.70
2022-08-02T15:41:25.154Z,2.20
2022-08-02T15:44:00.826Z,3.10
2022-08-02T15:46:30.775Z,2.65
2022-08-02T15:49:00.015Z,3.28
2022-08-02T15:51:27.304Z,2.08
2022-08-02T15:53:54.255Z,1.17
2022-08-02T15:56:24.027Z,2.88
2022-08-02T15:58:56.869Z,3.22
2022-08-02T16:01:32.109Z,3.63
2022-08-02T16:04:04.758Z,4.07
2022-08-02T16:06:31.831Z,3.47
2022-08-02T16:08:58.735Z,2.45
2022-08-02T16:11:25.675Z,2.05
2022-08-02T16:13:55.563Z,1.85
2022-08-02T16:16:26.041Z,2.65
2022-08-02T16:18:53.950Z,1.42
2022-08-02T16:21:22.886Z,2.58
2022-08-02T16:24:01.891Z,2.10
2022-08-02T16:26:31.754Z,2.67
2022-08-02T16:28:59.920Z,4.35
2022-08-02T16:31:26.927Z,3.38
2022-08-02T16:33:55.897Z,3.20
2022-08-02T16:36:25.151Z,2.88
2022-08-02T16:38:55.799Z,3.67
2022-08-02T16:41:23.165Z,2.70
2022-08-02T16:44:10.829Z,3.00
2022-08-02T16:46:37.988Z,1.83
2022-08-02T16:49:05.154Z,1.85
2022-08-02T16:51:53.369Z,6.55
2022-08-02T16:54:20.290Z,3.47
2022-08-02T16:56:47.243Z,2.47
2022-08-02T16:59:16.186Z,2.10
2022-08-02T17:02:11.717Z,3.95
2022-08-02T17:04:30.253Z,2.35
2022-08-02T17:07:00.119Z,4.05
2022-08-02T17:10:03.639Z,4.10
2022-08-02T17:12:16.964Z,3.35
2022-08-02T17:14:55.166Z,3.47
2022-08-02T17:17:34.059Z,2.55
2022-08-02T17:20:02.433Z,2.33
2022-08-02T17:22:29.538Z,3.53
2022-08-02T17:24:56.684Z,2.50
2022-08-02T17:27:26.752Z,2.55
2022-08-02T17:29:53.952Z,3.60
2022-08-02T17:32:20.906Z,3.60
2022-08-02T17:34:48.876Z,2.80
2022-08-02T17:37:38.687Z,4.70
2022-08-02T17:40:09.609Z,4.78
2022-08-02T17:42:37.191Z,5.65
2022-08-02T17:45:16.157Z,7.18
2022-08-02T17:48:03.854Z,8.45
2022-08-02T17:50:31.365Z,2.25
2022-08-02T17:52:59.110Z,3.88
2022-08-02T17:55:26.271Z,6.43
2022-08-02T17:57:57.115Z,6.45
2022-08-02T18:00:35.141Z,15.98
2022-08-02T18:03:05.464Z,11.10
2022-08-02T18:05:40.415Z,14.23
2022-08-02T18:08:22.881Z,17.40
2022-08-02T18:10:50.817Z,21.50
2022-08-02T18:13:17.710Z,14.80
2022-08-02T18:15:45.434Z,16.70
2022-08-02T18:18:14.547Z,12.02
2022-08-02T18:20:42.048Z,6.60
2022-08-02T18:23:13.431Z,8.93
2022-08-02T18:25:46.717Z,8.68
2022-08-02T18:28:15.141Z,5.43
2022-08-02T18:30:43.173Z,10.45
2022-08-02T18:33:55.551Z,9.20
2022-08-02T18:35:58.151Z,7.47
2022-08-02T18:38:27.823Z,7.05
2022-08-02T18:40:55.301Z,10.82
2022-08-02T18:43:25.370Z,6.93
2022-08-02T18:46:07.081Z,10.43
2022-08-02T18:54:30.678Z,4.60
2022-08-02T18:57:00.924Z,5.18
2022-08-02T18:59:36.704Z,5.75
2022-08-02T19:02:04.565Z,6.45
2022-08-02T19:04:31.469Z,3.55
2022-08-02T19:07:05.391Z,4.82
2022-08-02T19:09:34.802Z,7.05
2022-08-02T19:12:03.609Z,4.93
2022-08-02T19:14:30.847Z,4.75
2022-08-02T19:17:00.432Z,9.23
2022-08-02T19:19:44.251Z,6.50
2022-08-02T19:22:18.126Z,4.38
2022-08-02T19:25:01.512Z,10.40
2022-08-02T19:27:32.581Z,11.60
2022-08-02T19:30:02.305Z,4.03
2022-08-02T19:32:39.624Z,7.70
2022-08-02T19:35:19.365Z,4.95
2022-08-02T19:38:06.256Z,2.92
2022-08-02T19:40:33.704Z,5.50
2022-08-02T19:44:25.301Z,3.97
2022-08-02T19:45:49.810Z,3.97
2022-08-02T19:48:24.399Z,3.67
2022-08-02T19:50:56.603Z,5.45
2022-08-02T19:53:48.094Z,5.65
2022-08-02T19:56:20.501Z,8.02
2022-08-02T19:58:51.552Z,3.67
2022-08-02T20:01:26.967Z,6.57
2022-08-02T20:04:05.352Z,4.50
2022-08-02T20:06:32.601Z,4.00
2022-08-02T20:09:01.216Z,4.88
2022-08-02T20:11:34.778Z,5.00
2022-08-02T20:14:07.145Z,6.30
2022-08-02T20:16:35.432Z,9.82
2022-08-02T20:19:03.832Z,4.10
2022-08-02T20:21:35.803Z,4.22
2022-08-02T20:24:07.746Z,5.35
2022-08-02T20:26:35.790Z,3.08
2022-08-02T20:29:05.328Z,5.55
2022-08-02T20:31:32.853Z,3.42
2022-08-02T20:34:00.240Z,5.97
2022-08-02T20:36:28.154Z,4.25
2022-08-02T20:38:55.995Z,7.47
2022-08-02T20:41:23.901Z,3.05
2022-08-02T20:44:04.370Z,4.82
2022-08-02T20:46:44.013Z,5.85
2022-08-02T20:49:21.703Z,4.57
2022-08-02T20:51:50.335Z,5.85
2022-08-02T20:54:20.790Z,5.90
2022-08-02T20:56:50.634Z,6.32
2022-08-02T20:59:18.123Z,5.68
2022-08-02T21:01:57.240Z,8.00
2022-08-02T21:04:26.527Z,5.70
2022-08-02T21:06:55.785Z,5.78
2022-08-02T21:09:33.060Z,4.00
2022-08-02T21:12:12.535Z,5.88
2022-08-02T21:14:41.555Z,4.60
2022-08-02T21:17:10.549Z,5.38
2022-08-02T21:19:44.396Z,6.78
2022-08-02T21:22:11.410Z,6.15
2022-08-02T21:24:39.290Z,7.82
2022-08-02T21:27:06.273Z,5.75
2022-08-02T21:29:53.560Z,5.85
2022-08-02T21:32:21.636Z,5.15
2022-08-02T21:34:49.455Z,4.43
2022-08-02T21:37:16.907Z,8.52
2022-08-02T21:39:43.884Z,7.22
2022-08-02T21:44:51.296Z,9.90
2022-08-02T21:47:27.662Z,8.18
2022-08-02T21:50:12.762Z,14.32
2022-08-02T21:52:42.262Z,9.40
2022-08-02T21:55:21.201Z,9.73
2022-08-02T21:57:50.995Z,9.15
2022-08-02T22:00:18.005Z,6.90
2022-08-02T22:02:56.104Z,6.88
2022-08-02T22:05:23.248Z,7.07
2022-08-02T22:07:50.540Z,7.72
2022-08-02T22:10:18.100Z,8.18
2022-08-02T22:12:45.091Z,8.45
2022-08-02T22:15:12.084Z,6.85
2022-08-02T22:17:51.656Z,7.07
2022-08-02T22:20:21.289Z,7.97
2022-08-02T22:22:50.588Z,7.78
2022-08-02T22:25:26.827Z,8.05
2022-08-02T22:28:38.685Z,7.78
2022-08-02T22:30:57.449Z,6.10
2022-08-02T22:33:47.322Z,10.07
2022-08-02T22:39:19.246Z,7.55
2022-08-02T22:42:06.508Z,9.40
2022-08-02T22:44:35.338Z,10.45
2022-08-02T22:47:06.986Z,8.13
2022-08-02T22:49:38.003Z,6.95
2022-08-02T22:52:14.267Z,11.73
2022-08-02T22:54:43.404Z,8.65
2022-08-02T22:57:11.558Z,11.85
2022-08-02T22:58:45.656Z,7.85
2022-08-02T22:58:58.464Z,16.02
2022-08-02T22:59:09.520Z,6.53
2022-08-02T22:59:40.642Z,12.10
2022-08-02T23:02:09.200Z,8.40
2022-08-02T23:04:36.800Z,12.68
2022-08-02T23:07:04.168Z,9.93
2022-08-02T23:09:31.059Z,12.80
2022-08-02T23:11:57.971Z,9.02
2022-08-02T23:14:25.063Z,9.52
2022-08-02T23:17:10.377Z,13.93
2022-08-02T23:19:53.062Z,14.90
2022-08-02T23:22:30.080Z,12.93
2022-08-02T23:25:01.593Z,12.35
2022-08-02T23:27:29.516Z,16.45
2022-08-02T23:29:56.699Z,9.52
2022-08-02T23:32:25.484Z,15.77
2022-08-02T23:34:53.687Z,9.75
2022-08-02T23:37:21.117Z,10.85
2022-08-02T23:39:48.635Z,11.15
2022-08-02T23:42:15.902Z,9.73
2022-08-02T23:44:42.987Z,9.65
2022-08-02T23:47:11.078Z,9.93
2022-08-02T23:49:38.374Z,11.80
2022-08-02T23:52:07.803Z,9.05
2022-08-02T23:54:34.930Z,7.95
2022-08-02T23:57:20.805Z,8.23
2022-08-02T23:59:50.072Z,9.48
